Time;durP1;ratioP1;P1;durP2;ratioP2;P2;SDS_P1;SDS_P2;PMS_P1;PMS_P2;Temp;Humidity;BMP_temperature;BMP_pressure;BME280_temperature;BME280_humidity;BME280_pressure;Samples;Min_cycle;Max_cycle;Signal;HPM_P1;HPM_P2
2022/03/04 12:32:33;;;;;;;77.75;44.55;;;;;;;;;;6187264;22;20833;31
2022/03/04 12:34:59;;;;;;;81.25;45.00;;;;;;;;;;6198963;23;19916;-96
2022/03/04 12:37:28;;;;;;;81.50;45.80;;;;;;;;;;6199565;23;20016;-95
2022/03/04 12:39:53;;;;;;;79.00;45.08;;;;;;;;;;6194539;23;20013;-94
2022/03/04 12:42:19;;;;;;;82.00;45.30;;;;;;;;;;6193028;23;20009;-96
2022/03/04 12:44:45;;;;;;;79.28;45.58;;;;;;;;;;6210929;22;20016;-95
2022/03/04 12:47:12;;;;;;;79.93;45.38;;;;;;;;;;6265524;22;20015;-95
2022/03/04 17:08:31;;;;;;;30.80;19.23;;;;;;;;;;6208196;23;20024;-94
2022/03/04 17:11:00;;;;;;;29.40;18.45;;;;;;;;;;6241110;22;20016;-96
2022/03/04 17:13:26;;;;;;;31.45;17.90;;;;;;;;;;6258709;22;20018;-94
2022/03/04 17:15:55;;;;;;;29.65;19.42;;;;;;;;;;6252738;23;20000;-95
2022/03/04 17:18:23;;;;;;;31.42;19.05;;;;;;;;;;6253531;23;20008;-96
2022/03/04 17:20:48;;;;;;;30.23;18.10;;;;;;;;;;6250755;23;20024;-96
2022/03/04 17:23:16;;;;;;;30.95;19.15;;;;;;;;;;6250348;23;20010;-95
2022/03/04 17:25:43;;;;;;;29.10;19.60;;;;;;;;;;6253502;23;20011;-96
2022/03/04 17:28:08;;;;;;;28.80;18.15;;;;;;;;;;6251842;23;20004;-95
2022/03/04 17:30:35;;;;;;;30.30;18.90;;;;;;;;;;6253408;23;20015;-96
2022/03/04 17:33:01;;;;;;;29.42;18.95;;;;;;;;;;6251114;23;20009;-96
2022/03/04 17:35:27;;;;;;;29.27;19.65;;;;;;;;;;6250149;23;20026;-94
2022/03/04 17:37:54;;;;;;;34.25;21.10;;;;;;;;;;6250366;23;20024;-95
2022/03/04 17:40:21;;;;;;;31.38;20.13;;;;;;;;;;6253461;23;20071;-96
2022/03/04 17:42:46;;;;;;;29.92;18.60;;;;;;;;;;6228190;23;20454;-92
2022/03/04 17:45:14;;;;;;;32.10;18.88;;;;;;;;;;6253331;22;20438;-94
2022/03/04 17:47:39;;;;;;;30.13;19.35;;;;;;;;;;6249851;23;20012;-94
2022/03/04 17:50:05;;;;;;;29.45;18.75;;;;;;;;;;6249235;23;20008;-93
2022/03/04 17:52:31;;;;;;;28.15;18.30;;;;;;;;;;6248490;23;20008;-95
2022/03/04 17:54:57;;;;;;;27.20;17.33;;;;;;;;;;6251412;23;20019;-96
2022/03/04 17:57:23;;;;;;;25.23;16.95;;;;;;;;;;6252707;23;20004;-95
2022/03/04 17:59:49;;;;;;;26.00;18.85;;;;;;;;;;6256515;23;20078;-93
2022/03/04 18:02:18;;;;;;;27.80;18.25;;;;;;;;;;6253852;23;20026;-93
2022/03/04 18:04:48;;;;;;;28.48;18.08;;;;;;;;;;6252187;23;20004;-93
2022/03/04 18:07:15;;;;;;;28.92;17.80;;;;;;;;;;6253675;22;20446;-93
2022/03/04 18:41:48;;;;;;;25.02;16.38;;;;;;;;;;6244441;22;20055;-93
2022/03/04 18:46:58;;;;;;;24.85;16.45;;;;;;;;;;6255741;22;20024;-95
2022/03/04 18:52:02;;;;;;;26.38;16.08;;;;;;;;;;6282252;22;20024;-92
2022/03/04 18:54:28;;;;;;;28.00;16.73;;;;;;;;;;6273239;22;20007;-95
2022/03/04 18:57:23;;;;;;;26.35;16.55;;;;;;;;;;6306986;22;20043;-92
2022/03/04 19:00:09;;;;;;;25.92;17.27;;;;;;;;;;6283997;22;20004;-94
2022/03/04 19:17:57;;;;;;;26.02;15.93;;;;;;;;;;6307288;22;20051;-93
2022/03/04 19:31:59;;;;;;;28.48;18.05;;;;;;;;;;6279379;22;19996;-93
2022/03/04 19:34:28;;;;;;;28.85;17.95;;;;;;;;;;6280303;22;19996;-95
2022/03/04 19:37:03;;;;;;;29.23;16.85;;;;;;;;;;6301426;22;20014;-94
2022/03/04 19:40:13;;;;;;;27.23;16.45;;;;;;;;;;6305878;22;20008;-95
2022/03/04 19:43:06;;;;;;;27.88;17.58;;;;;;;;;;6283827;22;20008;-96
2022/03/04 19:45:38;;;;;;;28.30;17.52;;;;;;;;;;6266185;22;20007;-95
2022/03/04 19:48:09;;;;;;;28.92;18.23;;;;;;;;;;6306597;22;19991;-95
2022/03/04 19:50:38;;;;;;;30.27;18.45;;;;;;;;;;6305208;22;20046;-96
2022/03/04 19:53:05;;;;;;;27.10;16.52;;;;;;;;;;6273148;22;20004;-96
2022/03/04 19:55:38;;;;;;;26.40;16.83;;;;;;;;;;6275168;22;20035;-96
2022/03/04 19:58:04;;;;;;;25.75;15.73;;;;;;;;;;6264111;22;20875;-96
2022/03/04 20:00:30;;;;;;;25.88;16.33;;;;;;;;;;6257812;22;20019;-96
2022/03/04 20:02:56;;;;;;;30.85;17.83;;;;;;;;;;6260367;22;20004;-95
2022/03/04 20:05:31;;;;;;;28.15;17.83;;;;;;;;;;6258130;23;20004;-95
2022/03/04 20:07:57;;;;;;;27.83;17.55;;;;;;;;;;6258344;23;19994;-96
2022/03/04 20:10:25;;;;;;;28.63;17.27;;;;;;;;;;6255351;23;20059;-96
2022/03/04 20:12:51;;;;;;;30.23;18.30;;;;;;;;;;6252429;23;20331;-96
2022/03/04 20:15:20;;;;;;;29.98;17.48;;;;;;;;;;6252115;23;20004;-96
2022/03/04 20:17:46;;;;;;;26.75;16.70;;;;;;;;;;6251869;23;20094;-96
2022/03/04 20:20:14;;;;;;;26.98;16.70;;;;;;;;;;6253242;23;20062;-96
2022/03/04 20:22:39;;;;;;;29.85;17.75;;;;;;;;;;6252654;23;20008;-96
2022/03/04 20:25:07;;;;;;;29.17;17.60;;;;;;;;;;6251376;23;20452;-96
2022/03/04 20:27:33;;;;;;;26.75;16.27;;;;;;;;;;6254518;22;20008;-96
2022/03/04 20:29:59;;;;;;;28.88;17.35;;;;;;;;;;6255622;22;20319;-96
2022/03/04 20:32:28;;;;;;;28.42;17.02;;;;;;;;;;6253406;23;20014;-96
2022/03/04 20:34:55;;;;;;;27.73;16.90;;;;;;;;;;6252925;23;20012;-96
2022/03/04 20:37:27;;;;;;;26.23;16.27;;;;;;;;;;6249871;22;20008;-96
2022/03/04 20:40:06;;;;;;;30.73;18.10;;;;;;;;;;6254714;22;20020;-95
2022/03/04 20:42:39;;;;;;;31.90;18.75;;;;;;;;;;6273829;22;20019;-96
2022/03/04 20:45:06;;;;;;;29.20;17.33;;;;;;;;;;6262687;22;20011;-96
2022/03/04 20:47:34;;;;;;;28.00;17.42;;;;;;;;;;6261694;22;20003;-96
2022/03/04 20:50:06;;;;;;;29.50;16.73;;;;;;;;;;6256480;23;20008;-96
2022/03/04 20:52:33;;;;;;;32.30;20.35;;;;;;;;;;6257236;23;20423;-96
2022/03/04 20:55:13;;;;;;;30.80;17.85;;;;;;;;;;6256539;23;20011;-96
2022/03/04 20:57:39;;;;;;;29.02;17.98;;;;;;;;;;6262672;23;20061;-96
2022/03/04 21:00:10;;;;;;;27.90;17.27;;;;;;;;;;6260522;23;20327;-96
2022/03/04 21:02:38;;;;;;;30.77;17.15;;;;;;;;;;6255796;23;20043;-96
2022/03/04 21:05:04;;;;;;;26.45;16.58;;;;;;;;;;6233317;23;20000;-95
2022/03/04 21:07:31;;;;;;;34.70;19.35;;;;;;;;;;6252408;23;20438;-96
2022/03/04 21:09:56;;;;;;;29.33;17.42;;;;;;;;;;6252830;23;20007;-96
2022/03/04 21:12:24;;;;;;;26.58;16.58;;;;;;;;;;6249804;22;20000;-96
2022/03/04 21:14:49;;;;;;;27.65;16.90;;;;;;;;;;6248881;23;20004;-94
2022/03/04 21:17:16;;;;;;;30.25;18.50;;;;;;;;;;6247762;23;20058;-93
2022/03/04 21:19:43;;;;;;;27.02;16.65;;;;;;;;;;6250584;23;20000;-94
2022/03/04 21:22:09;;;;;;;27.63;17.38;;;;;;;;;;6251226;23;20004;-95
2022/03/04 21:24:34;;;;;;;28.75;17.50;;;;;;;;;;6251742;23;20004;-94
2022/03/04 21:27:04;;;;;;;29.27;16.98;;;;;;;;;;6257942;23;20005;-95
2022/03/04 21:29:35;;;;;;;25.00;16.52;;;;;;;;;;6259818;23;20004;-95
2022/03/04 21:32:01;;;;;;;32.10;18.45;;;;;;;;;;6251107;23;20011;-96
2022/03/04 21:34:28;;;;;;;28.17;17.27;;;;;;;;;;6254365;23;20036;-96
2022/03/04 21:36:53;;;;;;;29.88;16.98;;;;;;;;;;6251845;23;20018;-96
2022/03/04 21:39:24;;;;;;;32.60;18.35;;;;;;;;;;6251875;23;20043;-96
2022/03/04 21:41:49;;;;;;;29.13;16.75;;;;;;;;;;6251619;23;20008;-95
2022/03/04 21:44:17;;;;;;;30.33;17.92;;;;;;;;;;6251557;23;20095;-95
2022/03/04 21:46:43;;;;;;;30.58;17.33;;;;;;;;;;6252093;23;20096;-95
2022/03/04 21:49:13;;;;;;;52.22;26.85;;;;;;;;;;6249717;23;20004;-95
2022/03/04 21:51:40;;;;;;;33.67;19.65;;;;;;;;;;6249666;23;20015;-95
2022/03/04 21:54:07;;;;;;;32.25;18.90;;;;;;;;;;6251316;22;20000;-94
2022/03/04 21:56:33;;;;;;;37.08;20.95;;;;;;;;;;6250126;23;20022;-95
2022/03/04 21:58:58;;;;;;;105.60;47.22;;;;;;;;;;6250193;23;20083;-95
2022/03/04 22:01:24;;;;;;;61.22;31.20;;;;;;;;;;6250264;23;20004;-96
2022/03/04 22:03:51;;;;;;;73.00;35.83;;;;;;;;;;6250327;23;20061;-96
2022/03/04 22:06:18;;;;;;;79.88;37.47;;;;;;;;;;6250325;23;20432;-96
2022/03/04 22:08:50;;;;;;;78.80;39.17;;;;;;;;;;6253321;22;20012;-95
2022/03/04 22:11:20;;;;;;;59.13;39.78;;;;;;;;;;6256836;22;20012;-92
2022/03/04 22:13:45;;;;;;;;;;;;;;;;;;6260887;23;20008;-93
2022/03/04 22:16:37;;;;;;;31.98;19.08;;;;;;;;;;6256607;23;19910;-92
2022/03/04 22:19:03;;;;;;;34.42;22.30;;;;;;;;;;6255228;23;20004;-93
2022/03/04 22:21:28;;;;;;;31.77;21.30;;;;;;;;;;6251955;23;20019;-92
2022/03/04 22:23:54;;;;;;;32.67;18.73;;;;;;;;;;6252670;23;20001;-92
2022/03/04 22:26:22;;;;;;;31.77;18.40;;;;;;;;;;6254545;23;20000;-93
2022/03/04 22:28:51;;;;;;;29.67;18.30;;;;;;;;;;6255648;23;20024;-92
2022/03/04 22:31:17;;;;;;;32.67;18.43;;;;;;;;;;6255287;22;20062;-93
2022/03/04 22:33:43;;;;;;;29.13;18.08;;;;;;;;;;6254065;23;20044;-94
2022/03/04 22:36:08;;;;;;;32.20;18.98;;;;;;;;;;6254436;23;20064;-93
2022/03/04 22:38:34;;;;;;;34.42;20.50;;;;;;;;;;6255684;23;20012;-92
2022/03/04 22:41:00;;;;;;;36.55;21.15;;;;;;;;;;6254442;23;20004;-94
2022/03/04 22:43:26;;;;;;;32.13;20.45;;;;;;;;;;6262154;22;20032;-93
2022/03/04 22:45:52;;;;;;;31.20;18.85;;;;;;;;;;6255180;23;19996;-95
2022/03/04 22:48:17;;;;;;;36.67;22.15;;;;;;;;;;6251361;22;20473;-94
2022/03/04 22:50:48;;;;;;;37.13;21.25;;;;;;;;;;6248961;23;20015;-94
2022/03/04 22:53:14;;;;;;;35.72;22.27;;;;;;;;;;6250473;23;20027;-94
2022/03/04 22:55:39;;;;;;;39.70;23.45;;;;;;;;;;6249312;23;20412;-94
2022/03/04 22:58:05;;;;;;;36.00;22.15;;;;;;;;;;6250851;23;20415;-93
2022/03/04 23:00:42;;;;;;;34.10;19.40;;;;;;;;;;6250778;23;20007;-94
2022/03/04 23:08:40;;;;;;;29.92;18.52;;;;;;;;;;6253392;23;20034;-94
2022/03/04 23:11:22;;;;;;;34.45;19.10;;;;;;;;;;6251138;23;20083;-95
2022/03/04 23:13:50;;;;;;;31.55;19.30;;;;;;;;;;6251541;23;20008;-94
2022/03/04 23:16:17;;;;;;;55.72;36.63;;;;;;;;;;6251346;23;20004;-94
2022/03/04 23:18:43;;;;;;;43.13;23.58;;;;;;;;;;6251481;23;20005;-94
2022/03/04 23:21:12;;;;;;;33.80;19.60;;;;;;;;;;6252746;22;20016;-93
2022/03/04 23:23:39;;;;;;;40.22;23.70;;;;;;;;;;6251803;23;20092;-93
2022/03/04 23:26:05;;;;;;;40.83;26.80;;;;;;;;;;6251946;23;20004;-92
2022/03/04 23:28:31;;;;;;;37.20;21.05;;;;;;;;;;6256307;23;20008;-95
2022/03/04 23:30:56;;;;;;;36.00;22.05;;;;;;;;;;6251937;23;20435;-93
2022/03/04 23:33:24;;;;;;;35.72;21.73;;;;;;;;;;6253652;22;20004;-93
2022/03/04 23:35:49;;;;;;;34.78;21.38;;;;;;;;;;6252796;23;20011;-94
2022/03/04 23:38:16;;;;;;;36.70;20.70;;;;;;;;;;6252553;23;19996;-93
2022/03/04 23:40:44;;;;;;;35.38;21.33;;;;;;;;;;6251410;23;20007;-93
2022/03/04 23:43:10;;;;;;;33.50;19.92;;;;;;;;;;6251903;23;20004;-94
2022/03/04 23:45:35;;;;;;;35.97;21.17;;;;;;;;;;6251915;23;20011;-93
2022/03/04 23:48:03;;;;;;;34.47;20.75;;;;;;;;;;6252917;23;20089;-92
2022/03/04 23:50:30;;;;;;;35.88;21.55;;;;;;;;;;6259963;22;20011;-93
2022/03/04 23:52:57;;;;;;;31.13;19.23;;;;;;;;;;6255062;23;20014;-93
2022/03/04 23:55:26;;;;;;;34.88;18.88;;;;;;;;;;6251018;23;20467;-94
2022/03/04 23:57:52;;;;;;;35.80;19.95;;;;;;;;;;6250725;23;20064;-93
